TimeEST,TemperatureF,Dew PointF,Humidity,Sea Level PressureIn,VisibilityMPH,Wind Direction,Wind SpeedMPH,Gust SpeedMPH,PrecipitationIn,Events,Conditions,WindDirDegrees,DateUTC
12:56 AM,30.9,21.0,67,30.22,10.0,East,5.8,-,N/A,,Overcast,100,2013-02-08 05:56:00
1:56 AM,32.0,21.0,64,30.18,10.0,East,4.6,-,N/A,,Overcast,100,2013-02-08 06:56:00
2:56 AM,32.0,21.9,66,30.16,10.0,Calm,Calm,-,N/A,,Overcast,0,2013-02-08 07:56:00
3:56 AM,32.0,21.9,66,30.12,10.0,NE,4.6,-,N/A,,Overcast,50,2013-02-08 08:56:00
4:56 AM,32.0,23.0,69,30.09,10.0,NNE,3.5,-,N/A,,Overcast,30,2013-02-08 09:56:00
5:56 AM,32.0,24.1,73,30.07,10.0,NNE,3.5,-,N/A,,Overcast,30,2013-02-08 10:56:00
6:56 AM,32.0,25.0,75,30.05,10.0,Calm,Calm,-,N/A,,Overcast,0,2013-02-08 11:56:00
7:56 AM,32.0,27.0,82,30.03,7.0,Calm,Calm,-,N/A,,Overcast,0,2013-02-08 12:56:00
8:15 AM,32.0,26.6,80,30.01,6.0,Calm,Calm,-,N/A,,Haze,0,2013-02-08 13:15:00
8:56 AM,33.1,28.0,82,29.99,6.0,NE,3.5,-,N/A,,Haze,40,2013-02-08 13:56:00
9:56 AM,34.0,30.9,89,29.96,4.0,Calm,Calm,-,0.00,,Light Drizzle,0,2013-02-08 14:56:00
10:56 AM,35.1,32.0,89,29.92,4.0,NE,4.6,-,0.00,,Light Drizzle,40,2013-02-08 15:56:00
11:56 AM,36.0,32.0,86,29.87,8.0,ENE,5.8,-,0.00,,Light Drizzle,70,2013-02-08 16:56:00
12:53 PM,37.4,32.0,81,29.83,9.0,NNW,5.8,-,0.00,,Overcast,340,2013-02-08 17:53:00
12:56 PM,37.0,32.0,82,29.85,10.0,North,6.9,-,0.00,,Overcast,350,2013-02-08 17:56:00
1:56 PM,37.9,32.0,79,29.80,10.0,East,10.4,-,N/A,,Overcast,80,2013-02-08 18:56:00
2:56 PM,37.9,32.0,79,29.78,10.0,NNE,3.5,-,N/A,,Overcast,20,2013-02-08 19:56:00
3:56 PM,35.1,32.0,89,29.78,1.5,NNW,5.8,-,0.02,Rain-Snow,Light Rain,340,2013-02-08 20:56:00
4:14 PM,33.8,32.0,93,29.78,1.5,NW,5.8,-,0.02,Rain-Snow,Light Rain,320,2013-02-08 21:14:00
4:37 PM,33.8,30.2,87,29.78,0.8,WNW,9.2,-,0.05,Snow,Light Snow,300,2013-02-08 21:37:00
4:56 PM,32.0,30.9,96,29.80,0.8,WNW,9.2,-,0.07,Snow,Light Snow,300,2013-02-08 21:56:00
5:09 PM,32.0,30.2,93,29.78,0.5,WNW,8.1,-,0.01,Fog-Snow,Snow,300,2013-02-08 22:09:00
5:25 PM,32.0,32.0,100,29.77,0.8,NW,5.8,-,0.02,Snow,Light Snow,310,2013-02-08 22:25:00
5:42 PM,32.0,30.2,93,29.77,1.5,NW,5.8,-,0.02,Snow,Light Snow,310,2013-02-08 22:42:00
5:56 PM,32.0,32.0,100,29.78,1.5,NW,5.8,-,0.02,Rain-Snow,Light Rain,310,2013-02-08 22:56:00
6:22 PM,33.8,32.0,93,29.78,2.0,WNW,6.9,-,0.00,Rain,Light Rain,300,2013-02-08 23:22:00
6:56 PM,33.1,32.0,96,29.79,1.5,NW,4.6,-,0.00,Rain-Snow,Light Rain,320,2013-02-08 23:56:00
7:21 PM,33.8,32.0,93,29.78,4.0,NW,10.4,-,0.00,Rain-Snow,Light Rain,320,2013-02-09 00:21:00
7:42 PM,33.8,32.0,93,29.78,5.0,NW,11.5,-,0.00,,Overcast,310,2013-02-09 00:42:00
7:56 PM,34.0,32.0,92,29.80,7.0,NW,12.7,-,0.00,Rain,Light Rain,310,2013-02-09 00:56:00
8:56 PM,35.1,28.9,78,29.81,10.0,NW,18.4,-,0.00,,Overcast,310,2013-02-09 01:56:00
9:56 PM,33.1,25.0,72,29.84,10.0,NW,28.8,35.7,N/A,,Overcast,310,2013-02-09 02:56:00
10:56 PM,30.9,21.9,69,29.88,10.0,WNW,25.3,32.2,N/A,,Overcast,300,2013-02-09 03:56:00
11:56 PM,28.9,19.9,69,29.91,10.0,WNW,24.2,38.0,0.00,,Overcast,300,2013-02-09 04:56:00